aviador You're here:

KALI Decoded Metar

ALICE in TX, USA
Report Time2017-11-18 13:35:00
UTC Time2017-11-18 13:59:24
Flight Rules lifr LIFR
Wind190° at 11 kt
W.Decomp.*RWY 17: 10.7 kt HW 2.7 kt RCW
RWY 13: 6.5 kt HW 8.9 kt RCW
W.Rank190° ranks 16
Current wind is above 190° avg. (8.4)
Visibility9999 m
Phenomena:N/A
Clouds:Overcast 004 Hf
Expected CloudBase > 400 ft AGL from Temp-Dew spread
Ceiling400 ft
Temp21°C (ISA +6)
Dew Point20°C (94% RH)
AAT20.7°C
QNH1011 hPa
Density Alt1,293 ft
Elevation174 ft
Report Wrong Elevation
Raw Report
KALI 181335Z AUTO 19011KT 10SM OVC004 21/20 A2985 RMK AO2
T02110200=

Extra information for KALI:More info

Metar Taf Metar & Taf Last 4 Metars F.Rules Stats Wind Profile Meteogram Temp Stats Airport Information Weather charts Add Link Nearby VenuesMetar ALERT Operation Metar Decoded Social comments

AIRNAV info for KALI